sensor_id;sensor_type;location;lat;lon;timestamp;P1;durP1;ratioP1;P2;durP2;ratioP2
23642;SDS011;11998;55.788;37.572;2022-08-20T00:00:57;21.33;;;15.15;;
23642;SDS011;11998;55.788;37.572;2022-08-20T00:01:59;26.27;;;14.88;;
23642;SDS011;11998;55.788;37.572;2022-08-20T00:03:02;21.63;;;15.13;;
23642;SDS011;11998;55.788;37.572;2022-08-20T00:04:06;24.30;;;15.77;;
23642;SDS011;11998;55.788;37.572;2022-08-20T00:05:07;26.45;;;15.88;;
23642;SDS011;11998;55.788;37.572;2022-08-20T00:06:10;25.27;;;14.98;;
23642;SDS011;11998;55.788;37.572;2022-08-20T00:07:14;23.35;;;14.73;;
23642;SDS011;11998;55.788;37.572;2022-08-20T00:08:14;27.70;;;14.82;;
23642;SDS011;11998;55.788;37.572;2022-08-20T00:09:15;26.20;;;14.57;;
23642;SDS011;11998;55.788;37.572;2022-08-20T00:10:15;20.75;;;15.52;;
23642;SDS011;11998;55.788;37.572;2022-08-20T00:11:17;20.40;;;14.73;;
23642;SDS011;11998;55.788;37.572;2022-08-20T00:12:20;25.77;;;15.63;;
23642;SDS011;11998;55.788;37.572;2022-08-20T00:13:23;20.38;;;16.13;;
23642;SDS011;11998;55.788;37.572;2022-08-20T00:14:43;26.50;;;15.18;;
23642;SDS011;11998;55.788;37.572;2022-08-20T00:15:44;30.50;;;15.80;;
23642;SDS011;11998;55.788;37.572;2022-08-20T00:16:46;26.77;;;17.08;;
23642;SDS011;11998;55.788;37.572;2022-08-20T00:17:47;26.60;;;16.58;;
23642;SDS011;11998;55.788;37.572;2022-08-20T00:18:49;26.00;;;17.45;;
23642;SDS011;11998;55.788;37.572;2022-08-20T00:19:50;23.30;;;15.63;;
23642;SDS011;11998;55.788;37.572;2022-08-20T00:20:51;25.30;;;16.98;;
23642;SDS011;11998;55.788;37.572;2022-08-20T00:21:53;26.52;;;16.92;;
23642;SDS011;11998;55.788;37.572;2022-08-20T00:22:55;25.60;;;17.70;;
23642;SDS011;11998;55.788;37.572;2022-08-20T00:23:56;28.95;;;18.08;;
23642;SDS011;11998;55.788;37.572;2022-08-20T00:24:58;29.73;;;19.75;;
23642;SDS011;11998;55.788;37.572;2022-08-20T00:25:58;27.25;;;18.10;;
23642;SDS011;11998;55.788;37.572;2022-08-20T00:26:59;29.27;;;19.67;;
23642;SDS011;11998;55.788;37.572;2022-08-20T00:28:00;29.95;;;18.67;;
23642;SDS011;11998;55.788;37.572;2022-08-20T00:29:02;26.50;;;18.98;;
23642;SDS011;11998;55.788;37.572;2022-08-20T00:30:04;38.78;;;21.88;;
23642;SDS011;11998;55.788;37.572;2022-08-20T00:31:09;33.85;;;22.80;;
23642;SDS011;11998;55.788;37.572;2022-08-20T00:32:11;41.22;;;27.70;;
23642;SDS011;11998;55.788;37.572;2022-08-20T00:33:17;28.02;;;20.60;;
23642;SDS011;11998;55.788;37.572;2022-08-20T00:34:21;32.70;;;20.23;;
23642;SDS011;11998;55.788;37.572;2022-08-20T00:35:23;33.15;;;20.02;;
23642;SDS011;11998;55.788;37.572;2022-08-20T00:36:25;32.10;;;20.50;;
23642;SDS011;11998;55.788;37.572;2022-08-20T00:37:26;28.30;;;20.90;;
23642;SDS011;11998;55.788;37.572;2022-08-20T00:38:27;30.83;;;20.73;;
23642;SDS011;11998;55.788;37.572;2022-08-20T00:39:27;29.92;;;21.42;;
23642;SDS011;11998;55.788;37.572;2022-08-20T00:40:29;26.08;;;20.48;;
23642;SDS011;11998;55.788;37.572;2022-08-20T00:41:35;26.83;;;20.75;;
23642;SDS011;11998;55.788;37.572;2022-08-20T00:42:44;32.35;;;20.80;;
23642;SDS011;11998;55.788;37.572;2022-08-20T00:43:51;31.10;;;20.83;;
23642;SDS011;11998;55.788;37.572;2022-08-20T00:45:04;31.27;;;19.98;;
23642;SDS011;11998;55.788;37.572;2022-08-20T00:46:09;35.72;;;20.63;;
23642;SDS011;11998;55.788;37.572;2022-08-20T00:47:21;27.35;;;21.25;;
23642;SDS011;11998;55.788;37.572;2022-08-20T00:48:23;28.45;;;20.48;;
23642;SDS011;11998;55.788;37.572;2022-08-20T00:49:27;31.95;;;20.23;;
23642;SDS011;11998;55.788;37.572;2022-08-20T00:50:30;31.20;;;20.77;;
23642;SDS011;11998;55.788;37.572;2022-08-20T00:51:38;27.33;;;20.88;;
23642;SDS011;11998;55.788;37.572;2022-08-20T00:52:44;26.08;;;19.98;;
23642;SDS011;11998;55.788;37.572;2022-08-20T00:53:47;38.15;;;21.23;;
23642;SDS011;11998;55.788;37.572;2022-08-20T00:54:56;24.85;;;19.30;;
23642;SDS011;11998;55.788;37.572;2022-08-20T00:55:59;31.05;;;20.10;;
23642;SDS011;11998;55.788;37.572;2022-08-20T00:57:02;26.45;;;19.58;;
23642;SDS011;11998;55.788;37.572;2022-08-20T00:58:07;28.98;;;20.27;;
23642;SDS011;11998;55.788;37.572;2022-08-20T00:59:09;31.60;;;18.90;;
23642;SDS011;11998;55.788;37.572;2022-08-20T01:00:16;32.58;;;20.83;;
23642;SDS011;11998;55.788;37.572;2022-08-20T01:01:19;65.47;;;50.42;;
23642;SDS011;11998;55.788;37.572;2022-08-20T01:02:22;38.63;;;24.75;;
23642;SDS011;11998;55.788;37.572;2022-08-20T01:03:24;28.98;;;19.98;;
23642;SDS011;11998;55.788;37.572;2022-08-20T01:04:28;36.03;;;21.33;;
23642;SDS011;11998;55.788;37.572;2022-08-20T01:05:30;31.65;;;19.02;;
23642;SDS011;11998;55.788;37.572;2022-08-20T01:06:31;29.58;;;19.98;;
23642;SDS011;11998;55.788;37.572;2022-08-20T01:07:31;27.23;;;18.50;;
23642;SDS011;11998;55.788;37.572;2022-08-20T01:08:33;25.65;;;18.88;;
23642;SDS011;11998;55.788;37.572;2022-08-20T01:09:35;31.00;;;17.65;;
23642;SDS011;11998;55.788;37.572;2022-08-20T01:10:41;29.55;;;18.55;;
23642;SDS011;11998;55.788;37.572;2022-08-20T01:11:44;27.45;;;18.73;;
23642;SDS011;11998;55.788;37.572;2022-08-20T01:12:45;26.42;;;19.23;;
23642;SDS011;11998;55.788;37.572;2022-08-20T01:13:47;27.75;;;19.08;;
23642;SDS011;11998;55.788;37.572;2022-08-20T01:14:48;26.48;;;19.17;;
23642;SDS011;11998;55.788;37.572;2022-08-20T01:15:49;28.52;;;18.02;;
23642;SDS011;11998;55.788;37.572;2022-08-20T01:17:00;28.45;;;18.10;;
23642;SDS011;11998;55.788;37.572;2022-08-20T01:18:05;24.33;;;17.85;;
23642;SDS011;11998;55.788;37.572;2022-08-20T01:19:10;27.95;;;18.10;;
23642;SDS011;11998;55.788;37.572;2022-08-20T01:20:19;24.08;;;17.90;;
23642;SDS011;11998;55.788;37.572;2022-08-20T01:21:24;25.23;;;16.88;;
23642;SDS011;11998;55.788;37.572;2022-08-20T01:22:53;22.48;;;16.95;;
23642;SDS011;11998;55.788;37.572;2022-08-20T01:24:14;28.30;;;17.80;;
23642;SDS011;11998;55.788;37.572;2022-08-20T01:25:28;21.10;;;15.95;;
23642;SDS011;11998;55.788;37.572;2022-08-20T01:26:49;24.98;;;16.60;;
23642;SDS011;11998;55.788;37.572;2022-08-20T01:27:51;24.77;;;16.10;;
23642;SDS011;11998;55.788;37.572;2022-08-20T01:29:00;28.67;;;16.97;;
23642;SDS011;11998;55.788;37.572;2022-08-20T01:30:04;23.60;;;17.13;;
23642;SDS011;11998;55.788;37.572;2022-08-20T01:31:07;23.98;;;16.63;;
23642;SDS011;11998;55.788;37.572;2022-08-20T01:32:13;24.00;;;15.48;;
23642;SDS011;11998;55.788;37.572;2022-08-20T01:33:15;26.88;;;17.35;;
23642;SDS011;11998;55.788;37.572;2022-08-20T01:34:20;22.27;;;16.33;;
23642;SDS011;11998;55.788;37.572;2022-08-20T01:35:22;25.20;;;16.70;;
23642;SDS011;11998;55.788;37.572;2022-08-20T01:36:30;26.10;;;16.40;;
23642;SDS011;11998;55.788;37.572;2022-08-20T01:37:35;23.30;;;15.32;;
23642;SDS011;11998;55.788;37.572;2022-08-20T01:38:35;27.17;;;16.35;;
23642;SDS011;11998;55.788;37.572;2022-08-20T01:39:37;22.65;;;16.27;;
23642;SDS011;11998;55.788;37.572;2022-08-20T01:40:43;21.75;;;16.08;;
23642;SDS011;11998;55.788;37.572;2022-08-20T01:43:12;22.58;;;15.48;;
23642;SDS011;11998;55.788;37.572;2022-08-20T01:44:12;22.75;;;15.93;;
23642;SDS011;11998;55.788;37.572;2022-08-20T01:45:13;23.48;;;16.45;;
23642;SDS011;11998;55.788;37.572;2022-08-20T01:46:14;25.20;;;16.37;;
23642;SDS011;11998;55.788;37.572;2022-08-20T01:48:25;24.25;;;16.20;;
23642;SDS011;11998;55.788;37.572;2022-08-20T01:49:27;21.00;;;15.93;;
23642;SDS011;11998;55.788;37.572;2022-08-20T01:50:30;23.17;;;15.88;;
23642;SDS011;11998;55.788;37.572;2022-08-20T01:51:33;25.05;;;15.93;;
23642;SDS011;11998;55.788;37.572;2022-08-20T01:54:29;19.80;;;15.77;;
23642;SDS011;11998;55.788;37.572;2022-08-20T01:55:32;22.17;;;16.73;;
23642;SDS011;11998;55.788;37.572;2022-08-20T01:56:34;20.05;;;15.52;;
23642;SDS011;11998;55.788;37.572;2022-08-20T01:57:49;25.95;;;17.35;;
23642;SDS011;11998;55.788;37.572;2022-08-20T01:58:50;21.45;;;16.08;;
23642;SDS011;11998;55.788;37.572;2022-08-20T01:59:54;26.03;;;17.20;;
23642;SDS011;11998;55.788;37.572;2022-08-20T02:00:56;23.90;;;17.38;;
23642;SDS011;11998;55.788;37.572;2022-08-20T02:01:57;26.55;;;18.35;;
23642;SDS011;11998;55.788;37.572;2022-08-20T02:02:58;28.63;;;17.52;;
23642;SDS011;11998;55.788;37.572;2022-08-20T02:03:59;23.13;;;16.40;;
23642;SDS011;11998;55.788;37.572;2022-08-20T02:05:03;23.80;;;16.60;;
23642;SDS011;11998;55.788;37.572;2022-08-20T02:06:04;21.08;;;15.73;;
23642;SDS011;11998;55.788;37.572;2022-08-20T02:07:06;22.88;;;15.13;;
23642;SDS011;11998;55.788;37.572;2022-08-20T02:08:11;22.33;;;16.67;;
23642;SDS011;11998;55.788;37.572;2022-08-20T02:09:12;22.93;;;16.80;;
23642;SDS011;11998;55.788;37.572;2022-08-20T02:10:14;20.90;;;16.33;;
23642;SDS011;11998;55.788;37.572;2022-08-20T02:11:16;22.50;;;15.63;;
23642;SDS011;11998;55.788;37.572;2022-08-20T02:12:16;21.42;;;15.73;;
23642;SDS011;11998;55.788;37.572;2022-08-20T02:13:18;21.67;;;15.83;;
23642;SDS011;11998;55.788;37.572;2022-08-20T02:14:18;30.15;;;16.15;;
23642;SDS011;11998;55.788;37.572;2022-08-20T02:15:19;24.98;;;16.15;;
23642;SDS011;11998;55.788;37.572;2022-08-20T02:16:21;27.95;;;15.40;;
23642;SDS011;11998;55.788;37.572;2022-08-20T02:17:28;23.13;;;15.52;;
23642;SDS011;11998;55.788;37.572;2022-08-20T02:18:29;23.00;;;15.65;;
23642;SDS011;11998;55.788;37.572;2022-08-20T02:19:31;23.42;;;15.57;;
23642;SDS011;11998;55.788;37.572;2022-08-20T02:20:37;21.13;;;14.05;;
23642;SDS011;11998;55.788;37.572;2022-08-20T02:21:40;18.75;;;14.52;;
23642;SDS011;11998;55.788;37.572;2022-08-20T02:22:46;21.83;;;14.63;;
23642;SDS011;11998;55.788;37.572;2022-08-20T02:23:52;23.25;;;14.65;;
23642;SDS011;11998;55.788;37.572;2022-08-20T02:24:53;21.13;;;14.43;;
23642;SDS011;11998;55.788;37.572;2022-08-20T02:25:53;18.45;;;13.93;;
23642;SDS011;11998;55.788;37.572;2022-08-20T02:26:54;19.40;;;14.40;;
23642;SDS011;11998;55.788;37.572;2022-08-20T02:27:56;21.88;;;13.48;;
23642;SDS011;11998;55.788;37.572;2022-08-20T02:28:58;17.97;;;14.33;;
23642;SDS011;11998;55.788;37.572;2022-08-20T02:29:58;37.28;;;29.60;;
23642;SDS011;11998;55.788;37.572;2022-08-20T02:30:59;19.63;;;13.88;;
23642;SDS011;11998;55.788;37.572;2022-08-20T02:32:02;18.38;;;13.52;;
23642;SDS011;11998;55.788;37.572;2022-08-20T02:33:04;19.80;;;13.63;;
23642;SDS011;11998;55.788;37.572;2022-08-20T02:34:09;19.15;;;13.75;;
23642;SDS011;11998;55.788;37.572;2022-08-20T02:35:11;18.77;;;12.15;;
23642;SDS011;11998;55.788;37.572;2022-08-20T02:36:14;22.67;;;13.40;;
23642;SDS011;11998;55.788;37.572;2022-08-20T02:37:17;18.77;;;12.90;;
23642;SDS011;11998;55.788;37.572;2022-08-20T02:38:18;20.00;;;12.63;;
23642;SDS011;11998;55.788;37.572;2022-08-20T02:39:18;17.40;;;12.97;;
23642;SDS011;11998;55.788;37.572;2022-08-20T02:40:20;20.13;;;12.55;;
23642;SDS011;11998;55.788;37.572;2022-08-20T02:41:22;21.88;;;12.60;;
23642;SDS011;11998;55.788;37.572;2022-08-20T02:42:23;17.55;;;12.38;;
23642;SDS011;11998;55.788;37.572;2022-08-20T02:43:24;15.07;;;11.93;;
23642;SDS011;11998;55.788;37.572;2022-08-20T02:44:24;22.10;;;12.45;;
23642;SDS011;11998;55.788;37.572;2022-08-20T02:45:25;22.10;;;12.38;;
23642;SDS011;11998;55.788;37.572;2022-08-20T02:46:26;18.90;;;12.40;;
23642;SDS011;11998;55.788;37.572;2022-08-20T02:47:27;18.02;;;12.77;;
23642;SDS011;11998;55.788;37.572;2022-08-20T02:48:28;19.65;;;12.57;;
23642;SDS011;11998;55.788;37.572;2022-08-20T02:49:30;20.60;;;12.48;;
23642;SDS011;11998;55.788;37.572;2022-08-20T02:50:31;21.73;;;12.13;;
23642;SDS011;11998;55.788;37.572;2022-08-20T02:51:32;17.00;;;12.65;;
23642;SDS011;11998;55.788;37.572;2022-08-20T02:52:32;19.40;;;12.60;;
23642;SDS011;11998;55.788;37.572;2022-08-20T02:53:37;24.48;;;12.02;;
23642;SDS011;11998;55.788;37.572;2022-08-20T02:54:40;18.57;;;12.50;;
23642;SDS011;11998;55.788;37.572;2022-08-20T02:55:40;18.27;;;12.37;;
23642;SDS011;11998;55.788;37.572;2022-08-20T02:56:41;19.77;;;13.32;;
23642;SDS011;11998;55.788;37.572;2022-08-20T02:57:42;23.25;;;13.00;;
23642;SDS011;11998;55.788;37.572;2022-08-20T02:58:43;20.77;;;13.20;;
23642;SDS011;11998;55.788;37.572;2022-08-20T02:59:44;21.70;;;15.02;;
23642;SDS011;11998;55.788;37.572;2022-08-20T03:00:46;21.23;;;14.88;;
23642;SDS011;11998;55.788;37.572;2022-08-20T03:01:47;21.33;;;14.60;;
23642;SDS011;11998;55.788;37.572;2022-08-20T03:02:48;23.23;;;16.97;;
23642;SDS011;11998;55.788;37.572;2022-08-20T03:03:49;21.03;;;15.73;;
23642;SDS011;11998;55.788;37.572;2022-08-20T03:04:50;23.40;;;16.02;;
23642;SDS011;11998;55.788;37.572;2022-08-20T03:05:51;35.00;;;24.50;;
23642;SDS011;11998;55.788;37.572;2022-08-20T03:06:55;32.78;;;19.90;;
23642;SDS011;11998;55.788;37.572;2022-08-20T03:07:57;26.27;;;20.13;;
23642;SDS011;11998;55.788;37.572;2022-08-20T03:08:57;22.23;;;16.67;;
23642;SDS011;11998;55.788;37.572;2022-08-20T03:09:58;25.42;;;15.43;;
23642;SDS011;11998;55.788;37.572;2022-08-20T03:10:58;28.13;;;19.85;;
23642;SDS011;11998;55.788;37.572;2022-08-20T03:11:59;29.08;;;20.95;;
23642;SDS011;11998;55.788;37.572;2022-08-20T03:12:59;31.70;;;22.33;;
23642;SDS011;11998;55.788;37.572;2022-08-20T03:14:01;28.60;;;19.70;;
23642;SDS011;11998;55.788;37.572;2022-08-20T03:15:02;31.13;;;20.85;;
23642;SDS011;11998;55.788;37.572;2022-08-20T03:16:04;32.72;;;21.83;;
23642;SDS011;11998;55.788;37.572;2022-08-20T03:17:04;30.10;;;21.92;;
23642;SDS011;11998;55.788;37.572;2022-08-20T03:18:05;31.25;;;21.73;;
23642;SDS011;11998;55.788;37.572;2022-08-20T03:19:06;30.20;;;23.00;;
23642;SDS011;11998;55.788;37.572;2022-08-20T03:20:07;34.30;;;23.92;;
23642;SDS011;11998;55.788;37.572;2022-08-20T03:21:09;29.17;;;23.52;;
23642;SDS011;11998;55.788;37.572;2022-08-20T03:22:10;35.55;;;24.38;;
23642;SDS011;11998;55.788;37.572;2022-08-20T03:23:11;33.65;;;24.95;;
23642;SDS011;11998;55.788;37.572;2022-08-20T03:24:12;31.58;;;24.40;;
23642;SDS011;11998;55.788;37.572;2022-08-20T03:25:13;30.70;;;25.60;;
23642;SDS011;11998;55.788;37.572;2022-08-20T03:26:14;35.97;;;25.48;;
23642;SDS011;11998;55.788;37.572;2022-08-20T03:27:16;36.67;;;25.20;;
23642;SDS011;11998;55.788;37.572;2022-08-20T03:28:17;34.50;;;25.67;;
23642;SDS011;11998;55.788;37.572;2022-08-20T03:29:18;35.22;;;25.20;;
23642;SDS011;11998;55.788;37.572;2022-08-20T03:30:19;35.80;;;24.83;;
23642;SDS011;11998;55.788;37.572;2022-08-20T03:31:20;34.80;;;26.23;;
23642;SDS011;11998;55.788;37.572;2022-08-20T03:32:21;31.05;;;24.95;;
23642;SDS011;11998;55.788;37.572;2022-08-20T03:33:22;33.90;;;25.70;;
23642;SDS011;11998;55.788;37.572;2022-08-20T03:34:23;35.45;;;24.70;;
23642;SDS011;11998;55.788;37.572;2022-08-20T03:35:25;32.08;;;24.63;;
23642;SDS011;11998;55.788;37.572;2022-08-20T03:36:27;33.85;;;24.48;;
23642;SDS011;11998;55.788;37.572;2022-08-20T03:37:29;33.20;;;24.25;;
23642;SDS011;11998;55.788;37.572;2022-08-20T03:38:31;32.60;;;23.38;;
23642;SDS011;11998;55.788;37.572;2022-08-20T03:39:31;32.90;;;23.33;;
23642;SDS011;11998;55.788;37.572;2022-08-20T03:40:32;33.03;;;23.60;;
23642;SDS011;11998;55.788;37.572;2022-08-20T03:41:34;32.50;;;22.10;;
23642;SDS011;11998;55.788;37.572;2022-08-20T03:42:35;31.30;;;22.35;;
23642;SDS011;11998;55.788;37.572;2022-08-20T03:43:36;32.08;;;21.63;;
23642;SDS011;11998;55.788;37.572;2022-08-20T03:44:36;29.38;;;19.38;;
23642;SDS011;11998;55.788;37.572;2022-08-20T03:45:37;28.08;;;20.23;;
23642;SDS011;11998;55.788;37.572;2022-08-20T03:46:39;27.90;;;20.08;;
23642;SDS011;11998;55.788;37.572;2022-08-20T03:47:40;22.98;;;16.95;;
23642;SDS011;11998;55.788;37.572;2022-08-20T03:48:41;26.00;;;18.05;;
23642;SDS011;11998;55.788;37.572;2022-08-20T03:49:41;23.10;;;14.88;;
23642;SDS011;11998;55.788;37.572;2022-08-20T03:50:42;19.40;;;14.63;;
23642;SDS011;11998;55.788;37.572;2022-08-20T03:51:44;19.40;;;14.40;;
23642;SDS011;11998;55.788;37.572;2022-08-20T03:52:44;18.88;;;14.52;;
23642;SDS011;11998;55.788;37.572;2022-08-20T03:53:45;18.42;;;13.65;;
23642;SDS011;11998;55.788;37.572;2022-08-20T03:54:45;21.38;;;14.20;;
23642;SDS011;11998;55.788;37.572;2022-08-20T03:55:46;20.75;;;13.68;;
23642;SDS011;11998;55.788;37.572;2022-08-20T03:56:48;17.13;;;11.93;;
23642;SDS011;11998;55.788;37.572;2022-08-20T03:57:50;17.65;;;11.60;;
23642;SDS011;11998;55.788;37.572;2022-08-20T03:58:52;19.38;;;11.85;;
23642;SDS011;11998;55.788;37.572;2022-08-20T03:59:53;16.83;;;12.27;;
23642;SDS011;11998;55.788;37.572;2022-08-20T04:00:54;21.58;;;11.05;;
23642;SDS011;11998;55.788;37.572;2022-08-20T04:01:55;18.00;;;10.82;;
23642;SDS011;11998;55.788;37.572;2022-08-20T04:02:56;12.48;;;10.10;;
23642;SDS011;11998;55.788;37.572;2022-08-20T04:03:56;16.92;;;10.57;;
23642;SDS011;11998;55.788;37.572;2022-08-20T04:04:57;15.07;;;10.02;;
23642;SDS011;11998;55.788;37.572;2022-08-20T04:05:58;14.63;;;9.82;;
23642;SDS011;11998;55.788;37.572;2022-08-20T04:06:58;18.95;;;10.30;;
23642;SDS011;11998;55.788;37.572;2022-08-20T04:08:00;13.93;;;9.35;;
23642;SDS011;11998;55.788;37.572;2022-08-20T04:09:01;13.77;;;9.23;;
23642;SDS011;11998;55.788;37.572;2022-08-20T04:10:04;13.45;;;9.00;;
23642;SDS011;11998;55.788;37.572;2022-08-20T04:11:08;15.90;;;8.57;;
23642;SDS011;11998;55.788;37.572;2022-08-20T04:12:09;15.05;;;9.00;;
23642;SDS011;11998;55.788;37.572;2022-08-20T04:13:13;15.30;;;8.77;;
23642;SDS011;11998;55.788;37.572;2022-08-20T04:14:14;14.35;;;9.23;;
23642;SDS011;11998;55.788;37.572;2022-08-20T04:15:15;16.88;;;8.70;;
23642;SDS011;11998;55.788;37.572;2022-08-20T04:16:16;14.85;;;8.82;;
23642;SDS011;11998;55.788;37.572;2022-08-20T04:17:17;13.20;;;8.23;;
23642;SDS011;11998;55.788;37.572;2022-08-20T04:18:19;20.10;;;7.88;;
23642;SDS011;11998;55.788;37.572;2022-08-20T04:19:22;18.00;;;9.10;;
23642;SDS011;11998;55.788;37.572;2022-08-20T04:20:23;14.70;;;8.10;;
23642;SDS011;11998;55.788;37.572;2022-08-20T04:21:25;14.52;;;8.68;;
23642;SDS011;11998;55.788;37.572;2022-08-20T04:22:25;13.10;;;7.60;;
23642;SDS011;11998;55.788;37.572;2022-08-20T04:23:26;15.10;;;7.90;;
23642;SDS011;11998;55.788;37.572;2022-08-20T04:24:26;14.18;;;8.23;;
23642;SDS011;11998;55.788;37.572;2022-08-20T04:25:28;17.23;;;7.80;;
23642;SDS011;11998;55.788;37.572;2022-08-20T04:26:30;11.40;;;7.50;;
23642;SDS011;11998;55.788;37.572;2022-08-20T04:27:36;13.63;;;8.02;;
23642;SDS011;11998;55.788;37.572;2022-08-20T04:28:37;17.17;;;7.40;;
23642;SDS011;11998;55.788;37.572;2022-08-20T04:29:38;19.33;;;8.00;;
23642;SDS011;11998;55.788;37.572;2022-08-20T04:30:42;14.27;;;7.80;;
23642;SDS011;11998;55.788;37.572;2022-08-20T04:31:42;13.90;;;7.00;;
23642;SDS011;11998;55.788;37.572;2022-08-20T04:32:43;14.82;;;7.70;;
23642;SDS011;11998;55.788;37.572;2022-08-20T04:33:44;20.23;;;7.93;;
23642;SDS011;11998;55.788;37.572;2022-08-20T04:34:44;16.15;;;7.30;;
23642;SDS011;11998;55.788;37.572;2022-08-20T04:35:45;18.33;;;8.32;;
23642;SDS011;11998;55.788;37.572;2022-08-20T04:36:46;14.30;;;8.23;;
23642;SDS011;11998;55.788;37.572;2022-08-20T04:37:47;14.85;;;7.65;;
23642;SDS011;11998;55.788;37.572;2022-08-20T04:38:48;22.00;;;7.57;;
23642;SDS011;11998;55.788;37.572;2022-08-20T04:39:48;15.60;;;7.78;;
23642;SDS011;11998;55.788;37.572;2022-08-20T04:42:08;14.48;;;7.32;;
23642;SDS011;11998;55.788;37.572;2022-08-20T04:43:09;12.18;;;7.30;;
23642;SDS011;11998;55.788;37.572;2022-08-20T04:44:10;12.38;;;8.30;;
23642;SDS011;11998;55.788;37.572;2022-08-20T04:45:10;12.90;;;7.22;;
23642;SDS011;11998;55.788;37.572;2022-08-20T04:46:11;10.88;;;6.53;;
23642;SDS011;11998;55.788;37.572;2022-08-20T04:47:17;9.38;;;6.53;;
23642;SDS011;11998;55.788;37.572;2022-08-20T04:48:20;13.85;;;7.03;;
23642;SDS011;11998;55.788;37.572;2022-08-20T04:49:24;13.90;;;7.43;;
23642;SDS011;11998;55.788;37.572;2022-08-20T04:50:25;16.33;;;7.78;;
23642;SDS011;11998;55.788;37.572;2022-08-20T04:51:26;13.20;;;7.00;;
23642;SDS011;11998;55.788;37.572;2022-08-20T04:52:26;12.93;;;6.68;;
23642;SDS011;11998;55.788;37.572;2022-08-20T04:53:28;16.50;;;7.70;;
23642;SDS011;11998;55.788;37.572;2022-08-20T04:54:28;11.00;;;6.90;;
23642;SDS011;11998;55.788;37.572;2022-08-20T04:55:30;12.82;;;6.80;;
23642;SDS011;11998;55.788;37.572;2022-08-20T04:56:31;20.42;;;7.40;;
23642;SDS011;11998;55.788;37.572;2022-08-20T04:57:37;15.95;;;6.80;;
23642;SDS011;11998;55.788;37.572;2022-08-20T04:58:39;14.30;;;6.93;;
23642;SDS011;11998;55.788;37.572;2022-08-20T04:59:39;14.15;;;6.63;;
23642;SDS011;11998;55.788;37.572;2022-08-20T05:00:40;9.73;;;6.53;;
23642;SDS011;11998;55.788;37.572;2022-08-20T05:01:48;12.23;;;6.57;;
23642;SDS011;11998;55.788;37.572;2022-08-20T05:02:48;9.48;;;6.22;;
23642;SDS011;11998;55.788;37.572;2022-08-20T05:03:49;14.10;;;6.18;;
23642;SDS011;11998;55.788;37.572;2022-08-20T05:04:53;10.38;;;5.85;;
23642;SDS011;11998;55.788;37.572;2022-08-20T05:05:54;14.43;;;5.93;;
23642;SDS011;11998;55.788;37.572;2022-08-20T05:06:55;11.70;;;6.15;;
23642;SDS011;11998;55.788;37.572;2022-08-20T05:07:56;9.30;;;6.13;;
23642;SDS011;11998;55.788;37.572;2022-08-20T05:08:58;12.70;;;6.00;;
23642;SDS011;11998;55.788;37.572;2022-08-20T05:10:01;14.25;;;6.65;;
23642;SDS011;11998;55.788;37.572;2022-08-20T05:11:04;9.43;;;6.00;;
23642;SDS011;11998;55.788;37.572;2022-08-20T05:12:06;10.32;;;6.22;;
23642;SDS011;11998;55.788;37.572;2022-08-20T05:13:07;9.90;;;5.65;;
23642;SDS011;11998;55.788;37.572;2022-08-20T05:14:08;14.00;;;5.47;;
23642;SDS011;11998;55.788;37.572;2022-08-20T05:15:09;11.75;;;5.93;;
23642;SDS011;11998;55.788;37.572;2022-08-20T05:16:12;14.98;;;5.90;;
23642;SDS011;11998;55.788;37.572;2022-08-20T05:17:18;14.30;;;5.88;;
23642;SDS011;11998;55.788;37.572;2022-08-20T05:18:21;10.00;;;6.28;;
23642;SDS011;11998;55.788;37.572;2022-08-20T05:19:24;12.68;;;6.03;;
23642;SDS011;11998;55.788;37.572;2022-08-20T05:20:25;18.55;;;6.00;;
23642;SDS011;11998;55.788;37.572;2022-08-20T05:21:29;11.63;;;5.75;;
23642;SDS011;11998;55.788;37.572;2022-08-20T05:22:30;10.23;;;5.32;;
23642;SDS011;11998;55.788;37.572;2022-08-20T05:23:31;10.40;;;5.93;;
23642;SDS011;11998;55.788;37.572;2022-08-20T05:24:33;9.73;;;5.45;;
23642;SDS011;11998;55.788;37.572;2022-08-20T05:25:35;14.13;;;5.93;;
23642;SDS011;11998;55.788;37.572;2022-08-20T05:26:37;10.38;;;6.35;;
23642;SDS011;11998;55.788;37.572;2022-08-20T05:27:37;11.65;;;5.25;;
23642;SDS011;11998;55.788;37.572;2022-08-20T05:28:39;11.27;;;5.63;;
23642;SDS011;11998;55.788;37.572;2022-08-20T05:29:39;19.52;;;6.10;;
23642;SDS011;11998;55.788;37.572;2022-08-20T05:30:42;12.35;;;5.82;;
23642;SDS011;11998;55.788;37.572;2022-08-20T05:31:44;11.27;;;5.72;;
23642;SDS011;11998;55.788;37.572;2022-08-20T05:32:45;9.02;;;6.00;;
23642;SDS011;11998;55.788;37.572;2022-08-20T05:33:45;11.10;;;6.32;;
23642;SDS011;11998;55.788;37.572;2022-08-20T05:34:50;11.82;;;6.18;;
23642;SDS011;11998;55.788;37.572;2022-08-20T05:35:51;23.60;;;6.00;;
23642;SDS011;11998;55.788;37.572;2022-08-20T05:36:53;13.02;;;5.63;;
23642;SDS011;11998;55.788;37.572;2022-08-20T05:37:54;11.80;;;6.25;;
23642;SDS011;11998;55.788;37.572;2022-08-20T05:38:54;16.08;;;5.72;;
23642;SDS011;11998;55.788;37.572;2022-08-20T05:39:55;11.57;;;5.90;;
23642;SDS011;11998;55.788;37.572;2022-08-20T05:40:56;12.82;;;5.97;;
23642;SDS011;11998;55.788;37.572;2022-08-20T05:41:57;10.15;;;5.88;;
23642;SDS011;11998;55.788;37.572;2022-08-20T05:42:58;10.45;;;5.97;;
23642;SDS011;11998;55.788;37.572;2022-08-20T05:43:58;12.05;;;5.97;;
23642;SDS011;11998;55.788;37.572;2022-08-20T05:45:00;9.98;;;5.82;;
23642;SDS011;11998;55.788;37.572;2022-08-20T05:46:01;15.40;;;6.72;;
23642;SDS011;11998;55.788;37.572;2022-08-20T05:47:01;11.98;;;6.07;;
23642;SDS011;11998;55.788;37.572;2022-08-20T05:48:06;13.15;;;6.35;;
23642;SDS011;11998;55.788;37.572;2022-08-20T05:49:11;14.85;;;6.70;;
23642;SDS011;11998;55.788;37.572;2022-08-20T05:50:17;13.73;;;6.05;;
23642;SDS011;11998;55.788;37.572;2022-08-20T05:51:18;12.75;;;6.20;;
23642;SDS011;11998;55.788;37.572;2022-08-20T05:52:19;13.23;;;6.70;;
23642;SDS011;11998;55.788;37.572;2022-08-20T05:53:20;12.77;;;6.68;;
23642;SDS011;11998;55.788;37.572;2022-08-20T05:54:22;11.38;;;5.60;;
23642;SDS011;11998;55.788;37.572;2022-08-20T05:55:23;12.80;;;6.53;;
23642;SDS011;11998;55.788;37.572;2022-08-20T05:56:23;15.48;;;6.63;;
23642;SDS011;11998;55.788;37.572;2022-08-20T05:57:24;12.35;;;6.80;;
23642;SDS011;11998;55.788;37.572;2022-08-20T05:58:25;11.20;;;5.93;;
23642;SDS011;11998;55.788;37.572;2022-08-20T05:59:28;16.33;;;6.38;;
23642;SDS011;11998;55.788;37.572;2022-08-20T06:00:29;14.60;;;6.72;;
23642;SDS011;11998;55.788;37.572;2022-08-20T06:01:32;16.73;;;6.47;;
23642;SDS011;11998;55.788;37.572;2022-08-20T06:02:34;21.85;;;6.80;;
23642;SDS011;11998;55.788;37.572;2022-08-20T06:03:53;15.05;;;6.03;;
23642;SDS011;11998;55.788;37.572;2022-08-20T06:05:12;15.60;;;6.63;;
23642;SDS011;11998;55.788;37.572;2022-08-20T06:06:13;11.77;;;6.40;;
23642;SDS011;11998;55.788;37.572;2022-08-20T06:07:14;12.30;;;6.22;;
23642;SDS011;11998;55.788;37.572;2022-08-20T06:08:15;13.98;;;6.00;;